Impacts METAR Board
IDs:

KSAN - San Diego Intl Arpt, CA, US

Updated at: 1700 UTC 23 Jul 2018
Potential Impact None Slight Moderate High
Time 23/05Z 23/06Z 23/07Z 23/08Z 23/09Z 23/10Z 23/11Z 23/12Z 23/13Z 23/14Z 23/15Z 23/16Z 23/17Z
Temp77 76 75 74 74 73 73 73 72 73 75 77 80
Dewpt64 64 65 66 67 66 66 66 67 66 67 67 67
Altim30.02 30.01 30.00 29.98 29.97 29.96 29.95 29.95 29.95 29.95 29.97 29.96 29.96
VIS10 10 10 10 10 10 9 9 10 10 10 10 10
CIG-- -- -- -- -- 10 -- -- -- -- -- -- --
CoverSCTFEWFEWFEWCLRBKNFEWFEWFEWFEWFEWFEWFEW
FltCatVFRVFRVFRVFRVFRMVFRVFRVFRVFRVFRVFRVFRVFR
WX--------------------------
WDir35036032033034010000360290300300
WSpd5 4 5 5 4 3 0 0 0 3 4 5 6
WGst-- -- -- -- -- -- -- -- -- -- -- -- --
Raw hourly METARs
KSAN 230451Z 35005KT 10SM FEW014 SCT150 25/18 A3002 RMK AO2 SLP163 T02500178
KSAN 230551Z 36004KT 10SM FEW014 FEW150 24/18 A3001 RMK AO2 SLP161 T02440178 10278 20239 50007
KSAN 230651Z 32005KT 10SM FEW014 FEW150 24/18 A3000 RMK AO2 SLP160 T02390183
KSAN 230751Z 33005KT 10SM FEW014 23/19 A2998 RMK AO2 SLP152 T02330189 402890217
KSAN 230851Z 34004KT 10SM CLR 23/19 A2997 RMK AO2 SLP149 T02330194 58013
KSAN 231005Z 01003KT 10SM BKN010 23/19 A2996 RMK AO2 T02280189
KSAN 231051Z 00000KT 9SM FEW010 23/19 A2995 RMK AO2 SLP141 T02280189
KSAN 231151Z 00000KT 9SM FEW010 23/19 A2995 RMK AO2 SLP140 T02280189 10244 20222 56009
KSAN 231251Z 00000KT 10SM FEW010 22/19 A2995 RMK AO2 SLP141 T02220194
KSAN 231351Z COR 36003KT 10SM FEW010 23/19 A2995 RMK AO2 SLP143 T02280189
KSAN 231451Z 29004KT 10SM FEW010 24/19 A2997 RMK AO2 SLP147 T02390194 53007
KSAN 231551Z 30005KT 10SM FEW010 25/19 A2996 RMK AO2 SLP146 T02500194
KSAN 231651Z 30006KT 10SM FEW010 27/19 A2996 RMK AO2 SLP146 T02670194



Page loaded:  17:33 UTC  |   10:33 AM Pacific  |   11:33 AM Mountain  |   12:33 PM Central  |   01:33 PM Eastern

 

ADVISORIES

FORECASTS

FORECASTS

OBSERVATIONS

USER TOOLS

ABOUT US